createdAt,value
2023-08-13T00:01:26.093Z,12.53
2023-08-13T00:03:27.994Z,13.63
2023-08-13T00:05:29.764Z,14.40
2023-08-13T00:07:31.559Z,13.33
2023-08-13T00:09:33.296Z,11.40
2023-08-13T00:11:35.444Z,10.77
2023-08-13T00:13:37.182Z,10.57
2023-08-13T00:15:39.088Z,11.03
2023-08-13T00:17:40.867Z,10.73
2023-08-13T00:19:42.652Z,11.43
2023-08-13T00:21:54.722Z,12.33
2023-08-13T00:24:06.547Z,11.53
2023-08-13T00:26:08.319Z,12.90
2023-08-13T00:28:10.168Z,12.80
2023-08-13T00:30:12.158Z,13.30
2023-08-13T00:32:14.578Z,12.40
2023-08-13T00:34:16.485Z,11.57
2023-08-13T00:36:18.191Z,10.93
2023-08-13T00:38:20.151Z,10.87
2023-08-13T00:40:21.935Z,10.00
2023-08-13T00:42:23.683Z,9.07
2023-08-13T00:44:25.553Z,9.03
2023-08-13T00:46:27.645Z,9.33
2023-08-13T00:48:29.672Z,8.30
2023-08-13T00:50:31.712Z,8.53
2023-08-13T00:52:33.701Z,8.37
2023-08-13T00:54:36.757Z,8.00
2023-08-13T00:56:38.946Z,8.20
2023-08-13T00:58:41.840Z,8.20
2023-08-13T01:00:43.551Z,7.63
2023-08-13T01:02:45.457Z,8.43
2023-08-13T01:04:47.121Z,7.10
2023-08-13T01:07:01.198Z,7.90
2023-08-13T01:09:07.105Z,7.83
2023-08-13T01:11:36.574Z,8.33
2023-08-13T01:13:44.105Z,8.50
2023-08-13T01:15:46.720Z,8.87
2023-08-13T01:17:53.418Z,9.20
2023-08-13T01:19:55.250Z,9.37
2023-08-13T01:21:56.935Z,8.27
2023-08-13T01:23:58.650Z,8.40
2023-08-13T01:26:09.643Z,8.90
2023-08-13T01:28:28.704Z,8.80
2023-08-13T01:30:40.595Z,9.10
2023-08-13T01:32:51.819Z,8.77
2023-08-13T01:34:54.065Z,10.00
2023-08-13T01:36:56.457Z,8.23
2023-08-13T01:39:00.137Z,8.27
2023-08-13T01:41:03.172Z,8.63
2023-08-13T01:43:05.218Z,8.17
2023-08-13T01:45:07.346Z,9.10
2023-08-13T01:47:09.132Z,8.30
2023-08-13T01:49:10.971Z,8.10
2023-08-13T01:51:12.763Z,9.40
2023-08-13T01:53:14.450Z,7.23
2023-08-13T01:55:16.239Z,8.53
2023-08-13T01:57:18.043Z,6.77
2023-08-13T01:59:19.738Z,7.03
2023-08-13T02:01:21.543Z,8.27
2023-08-13T02:03:23.313Z,7.87
2023-08-13T02:05:24.966Z,7.80
2023-08-13T02:07:26.709Z,7.90
2023-08-13T02:09:28.428Z,7.80
2023-08-13T02:11:30.465Z,7.70
2023-08-13T02:13:32.561Z,8.00
2023-08-13T02:15:34.324Z,9.20
2023-08-13T02:17:36.126Z,9.00
2023-08-13T02:19:37.856Z,9.30
2023-08-13T02:21:39.561Z,7.87
2023-08-13T02:23:41.289Z,8.90
2023-08-13T02:25:43.062Z,8.73
2023-08-13T02:27:44.815Z,9.40
2023-08-13T02:29:46.531Z,9.83
2023-08-13T02:31:48.222Z,9.97
2023-08-13T02:33:49.981Z,8.77
2023-08-13T02:35:51.704Z,9.73
2023-08-13T02:37:53.606Z,8.73
2023-08-13T02:39:55.282Z,9.73
2023-08-13T02:41:56.973Z,9.33
2023-08-13T02:43:58.740Z,9.00
2023-08-13T02:46:00.500Z,9.67
2023-08-13T02:48:02.698Z,7.77
2023-08-13T02:50:04.786Z,7.57
2023-08-13T02:52:06.624Z,8.43
2023-08-13T02:54:08.341Z,8.10
2023-08-13T02:56:11.333Z,7.57
2023-08-13T02:58:13.032Z,9.30
2023-08-13T03:00:15.435Z,7.27
2023-08-13T03:02:18.172Z,6.47
2023-08-13T03:04:20.387Z,8.03
2023-08-13T03:06:23.285Z,7.20
2023-08-13T03:08:25.629Z,7.63
2023-08-13T03:10:27.577Z,6.10
2023-08-13T03:12:29.263Z,7.10
2023-08-13T03:14:30.987Z,6.70
2023-08-13T03:16:32.703Z,7.13
2023-08-13T03:18:34.365Z,6.37
2023-08-13T03:20:36.313Z,6.63
2023-08-13T03:22:38.828Z,6.20
2023-08-13T03:24:40.665Z,7.13
2023-08-13T03:26:42.497Z,7.00
2023-08-13T03:28:44.295Z,6.97
2023-08-13T03:30:46.215Z,7.33
2023-08-13T03:32:48.134Z,7.40
2023-08-13T03:34:49.926Z,7.30
2023-08-13T03:36:53.210Z,7.43
2023-08-13T03:38:55.127Z,7.87
2023-08-13T03:40:57.400Z,7.10
2023-08-13T03:42:59.092Z,7.60
2023-08-13T03:45:00.885Z,8.33
2023-08-13T03:47:02.628Z,7.60
2023-08-13T03:49:04.497Z,7.43
2023-08-13T03:51:06.433Z,6.57
2023-08-13T03:53:08.366Z,7.33
2023-08-13T03:55:10.261Z,7.33
2023-08-13T03:57:11.913Z,8.00
2023-08-13T03:59:13.773Z,6.00
2023-08-13T04:01:15.695Z,6.43
2023-08-13T04:03:25.564Z,7.60
2023-08-13T04:05:28.339Z,7.93
2023-08-13T04:07:30.050Z,8.47
2023-08-13T04:09:31.773Z,7.30
2023-08-13T04:11:33.757Z,6.73
2023-08-13T04:13:35.539Z,7.53
2023-08-13T04:15:37.239Z,6.40
2023-08-13T04:17:39.087Z,6.60
2023-08-13T04:19:40.843Z,6.83
2023-08-13T04:21:42.705Z,6.70
2023-08-13T04:23:44.780Z,6.70
2023-08-13T04:25:46.631Z,6.80
2023-08-13T04:27:48.294Z,5.93
2023-08-13T04:29:50.158Z,7.30
2023-08-13T04:31:51.924Z,6.60
2023-08-13T04:33:53.731Z,6.63
2023-08-13T04:35:56.218Z,5.80
2023-08-13T04:37:58.034Z,5.80
2023-08-13T04:39:59.773Z,6.47
2023-08-13T04:42:01.665Z,6.60
2023-08-13T04:44:03.760Z,6.80
2023-08-13T04:46:05.690Z,6.57
2023-08-13T04:48:07.713Z,6.00
2023-08-13T04:50:10.222Z,6.60
2023-08-13T04:52:12.090Z,6.33
2023-08-13T04:54:14.045Z,6.70
2023-08-13T04:56:15.826Z,6.30
2023-08-13T04:58:17.585Z,6.70
2023-08-13T05:00:19.416Z,6.30
2023-08-13T05:02:21.122Z,6.90
2023-08-13T05:04:22.879Z,7.17
2023-08-13T05:06:24.846Z,6.90
2023-08-13T05:08:26.603Z,6.80
2023-08-13T05:10:28.282Z,6.60
2023-08-13T05:12:30.015Z,6.90
2023-08-13T05:14:31.835Z,8.00
2023-08-13T05:16:33.617Z,6.90
2023-08-13T05:18:35.430Z,5.83
2023-08-13T05:20:37.249Z,6.93
2023-08-13T05:22:39.072Z,7.80
2023-08-13T05:24:41.049Z,7.60
2023-08-13T05:26:42.784Z,7.20
2023-08-13T05:28:44.449Z,6.40
2023-08-13T05:30:46.767Z,7.90
2023-08-13T05:32:48.760Z,7.30
2023-08-13T05:34:50.573Z,8.00
2023-08-13T05:36:52.244Z,7.47
2023-08-13T05:38:53.970Z,8.47
2023-08-13T05:40:55.666Z,7.83
2023-08-13T05:42:57.358Z,7.80
2023-08-13T05:44:59.005Z,7.73
2023-08-13T05:47:00.779Z,8.80
2023-08-13T05:49:02.441Z,8.20
2023-08-13T05:51:04.182Z,8.80
2023-08-13T05:53:06.331Z,10.30
2023-08-13T05:55:08.811Z,10.00
2023-08-13T05:57:10.624Z,10.20
2023-08-13T05:59:12.357Z,8.57
2023-08-13T06:01:16.308Z,8.43
2023-08-13T06:03:18.239Z,9.40
2023-08-13T06:05:20.059Z,9.03
2023-08-13T06:07:21.738Z,10.33
2023-08-13T06:09:23.597Z,9.00
2023-08-13T06:11:25.544Z,8.23
2023-08-13T06:13:27.209Z,8.60
2023-08-13T06:15:29.007Z,8.60
2023-08-13T06:17:30.880Z,7.73
2023-08-13T06:19:32.651Z,7.20
2023-08-13T06:21:34.439Z,7.07
2023-08-13T06:23:36.349Z,7.20
2023-08-13T06:25:40.389Z,6.67
2023-08-13T06:27:42.258Z,7.57
2023-08-13T06:29:55.791Z,6.87
2023-08-13T06:32:06.774Z,6.63
2023-08-13T06:34:08.518Z,6.03
2023-08-13T06:36:10.411Z,6.60
2023-08-13T06:38:12.337Z,6.23
2023-08-13T06:40:14.211Z,6.63
2023-08-13T06:42:16.219Z,7.40
2023-08-13T06:44:20.240Z,7.10
2023-08-13T06:46:21.975Z,6.97
2023-08-13T06:48:23.740Z,7.67
2023-08-13T06:50:26.938Z,6.50
2023-08-13T06:52:28.636Z,6.20
2023-08-13T06:54:30.344Z,6.67
2023-08-13T06:56:32.157Z,6.80
2023-08-13T06:58:34.200Z,6.90
2023-08-13T07:00:40.465Z,7.53
2023-08-13T07:02:42.719Z,7.60
2023-08-13T07:04:44.595Z,6.10
2023-08-13T07:06:46.414Z,7.60
2023-08-13T07:08:48.122Z,7.97
2023-08-13T07:10:50.811Z,8.70
2023-08-13T07:12:52.577Z,9.80
2023-08-13T07:14:54.327Z,7.03
2023-08-13T07:16:56.110Z,7.00
2023-08-13T07:18:58.992Z,6.37
2023-08-13T07:21:00.773Z,7.93
2023-08-13T07:23:02.595Z,6.50
2023-08-13T07:25:06.604Z,6.70
2023-08-13T07:27:11.193Z,6.50
2023-08-13T07:29:13.405Z,5.93
2023-08-13T07:31:15.794Z,5.23
2023-08-13T07:33:17.643Z,4.77
2023-08-13T07:35:19.403Z,5.50
2023-08-13T07:37:21.134Z,5.17
2023-08-13T07:39:23.493Z,4.57
2023-08-13T07:41:25.239Z,5.10
2023-08-13T07:43:27.080Z,5.90
2023-08-13T07:45:30.829Z,4.60
2023-08-13T07:47:33.825Z,4.87
2023-08-13T07:49:35.706Z,4.13
2023-08-13T07:51:37.401Z,4.90
2023-08-13T07:53:39.939Z,4.90
2023-08-13T07:55:41.777Z,5.10
2023-08-13T07:57:43.925Z,3.93
2023-08-13T07:59:45.815Z,3.83
2023-08-13T08:01:48.124Z,3.93
2023-08-13T08:03:50.134Z,5.30
2023-08-13T08:05:52.938Z,4.53
2023-08-13T08:07:54.635Z,4.57
2023-08-13T08:09:56.309Z,4.00
2023-08-13T08:11:57.984Z,4.70
2023-08-13T08:13:59.691Z,5.17
2023-08-13T08:16:01.424Z,5.10
2023-08-13T08:18:03.209Z,5.40
2023-08-13T08:20:07.676Z,4.67
2023-08-13T08:22:09.451Z,4.67
2023-08-13T08:24:11.281Z,4.40
2023-08-13T08:26:13.134Z,3.50
2023-08-13T08:28:14.864Z,4.43
2023-08-13T08:30:16.615Z,4.50
2023-08-13T08:32:18.538Z,4.03
2023-08-13T08:34:20.531Z,4.70
2023-08-13T08:36:22.454Z,3.47
2023-08-13T08:38:24.226Z,2.97
2023-08-13T08:40:26.282Z,3.07
2023-08-13T08:42:31.190Z,2.90
2023-08-13T08:44:34.710Z,3.47
2023-08-13T08:46:38.040Z,3.00
2023-08-13T08:48:41.210Z,3.00
2023-08-13T08:50:44.351Z,2.83
2023-08-13T08:52:47.949Z,2.87
2023-08-13T08:54:50.421Z,3.50
2023-08-13T08:56:52.105Z,3.57
2023-08-13T08:58:53.860Z,3.27
2023-08-13T09:01:01.821Z,4.10
2023-08-13T09:03:05.602Z,3.03
2023-08-13T09:05:08.353Z,3.10
2023-08-13T09:07:10.147Z,3.20
2023-08-13T09:09:12.157Z,3.28
2023-08-13T09:11:14.160Z,2.73
2023-08-13T09:13:15.946Z,3.30
2023-08-13T09:15:17.788Z,3.37
2023-08-13T09:17:19.512Z,3.10
2023-08-13T09:19:25.268Z,3.30
2023-08-13T09:21:27.133Z,3.20
2023-08-13T09:23:29.057Z,3.10
2023-08-13T09:25:31.403Z,3.60
2023-08-13T09:27:33.206Z,3.20
2023-08-13T09:29:36.048Z,3.58
2023-08-13T09:31:37.903Z,3.25
2023-08-13T09:33:39.726Z,2.75
2023-08-13T09:35:42.660Z,2.83
2023-08-13T09:37:44.341Z,2.42
2023-08-13T09:39:46.119Z,2.10
2023-08-13T09:41:50.476Z,2.20
2023-08-13T09:43:54.723Z,2.20
2023-08-13T09:45:59.196Z,2.40
2023-08-13T09:48:08.019Z,2.58
2023-08-13T09:50:12.982Z,2.13
2023-08-13T09:52:23.298Z,2.60
2023-08-13T09:54:47.112Z,2.40
2023-08-13T09:56:56.234Z,2.40
2023-08-13T09:58:58.519Z,2.13
2023-08-13T10:01:01.409Z,2.08
2023-08-13T10:03:03.621Z,2.38
2023-08-13T10:05:05.896Z,2.38
2023-08-13T10:07:08.476Z,2.58
2023-08-13T10:09:11.468Z,2.90
2023-08-13T10:11:14.447Z,2.17
2023-08-13T10:13:16.475Z,2.35
2023-08-13T10:15:21.410Z,2.55
2023-08-13T10:17:27.935Z,2.60
2023-08-13T10:19:31.018Z,2.47
2023-08-13T10:21:36.958Z,2.30
2023-08-13T10:23:39.127Z,1.90
2023-08-13T10:25:41.021Z,2.35
2023-08-13T10:27:46.582Z,2.00
2023-08-13T10:29:48.334Z,2.35
2023-08-13T10:32:17.302Z,2.13
2023-08-13T10:34:19.437Z,1.98
2023-08-13T10:36:21.391Z,2.30
2023-08-13T10:38:34.492Z,2.42
2023-08-13T10:40:36.992Z,1.88
2023-08-13T10:42:39.204Z,2.38
2023-08-13T10:44:41.637Z,1.88
2023-08-13T10:46:44.263Z,2.17
2023-08-13T10:48:46.192Z,2.40
2023-08-13T10:50:48.113Z,2.35
2023-08-13T10:52:54.597Z,2.22
2023-08-13T10:54:59.128Z,2.25
2023-08-13T10:57:02.274Z,2.50
2023-08-13T10:59:04.289Z,1.90
2023-08-13T11:01:15.078Z,2.60
2023-08-13T11:03:19.802Z,2.30
2023-08-13T11:05:22.772Z,2.10
2023-08-13T11:07:24.990Z,2.10
2023-08-13T11:09:27.473Z,2.22
2023-08-13T11:11:29.607Z,2.10
2023-08-13T11:13:31.426Z,1.88
2023-08-13T11:15:33.179Z,1.63
2023-08-13T11:17:35.093Z,2.15
2023-08-13T11:19:36.872Z,2.60
2023-08-13T11:21:38.674Z,2.28
2023-08-13T11:23:40.703Z,2.33
2023-08-13T11:25:44.634Z,2.22
2023-08-13T11:27:47.181Z,2.60
2023-08-13T11:29:49.090Z,2.70
2023-08-13T11:31:51.219Z,2.47
2023-08-13T11:33:53.030Z,2.40
2023-08-13T11:35:55.439Z,2.53
2023-08-13T11:37:57.362Z,2.58
2023-08-13T11:39:59.128Z,2.05
2023-08-13T11:42:10.516Z,2.05
2023-08-13T11:44:12.271Z,2.70
2023-08-13T11:46:14.245Z,1.90
2023-08-13T11:48:18.452Z,2.00
2023-08-13T11:50:24.607Z,2.58
2023-08-13T11:52:26.365Z,2.58
2023-08-13T11:54:28.115Z,2.10
2023-08-13T11:56:29.800Z,2.70
2023-08-13T11:58:31.520Z,2.67
2023-08-13T12:00:34.173Z,2.53
2023-08-13T12:02:40.696Z,2.10
2023-08-13T12:04:47.484Z,2.85
2023-08-13T12:06:51.709Z,2.30
2023-08-13T12:08:53.904Z,4.53
2023-08-13T12:10:58.437Z,2.10
2023-08-13T12:13:00.782Z,2.50
2023-08-13T12:15:02.558Z,2.15
2023-08-13T12:17:04.394Z,2.53
2023-08-13T12:19:07.436Z,2.67
2023-08-13T12:21:09.227Z,2.72
2023-08-13T12:23:11.180Z,2.58
2023-08-13T12:25:13.099Z,2.83
2023-08-13T12:27:14.813Z,2.50
2023-08-13T12:29:16.598Z,2.20
2023-08-13T12:31:20.131Z,2.60
2023-08-13T12:33:21.854Z,2.30
2023-08-13T12:35:23.839Z,2.53
2023-08-13T12:37:26.588Z,2.42
2023-08-13T12:39:28.510Z,2.47
2023-08-13T12:41:39.080Z,2.40
2023-08-13T12:43:41.944Z,2.30
2023-08-13T12:45:43.699Z,2.00
2023-08-13T12:47:45.424Z,2.50
2023-08-13T12:49:47.262Z,1.88
2023-08-13T12:51:49.083Z,2.13
2023-08-13T12:53:50.768Z,2.33
2023-08-13T12:55:52.742Z,2.35
2023-08-13T12:57:54.552Z,2.28
2023-08-13T12:59:56.266Z,3.03
2023-08-13T13:01:57.985Z,2.30
2023-08-13T13:04:00.206Z,2.50
2023-08-13T13:06:01.969Z,2.35
2023-08-13T13:08:03.905Z,2.10
2023-08-13T13:10:05.971Z,2.15
2023-08-13T13:12:08.466Z,2.10
2023-08-13T13:14:10.401Z,2.40
2023-08-13T13:16:12.368Z,2.15
2023-08-13T13:18:14.436Z,2.63
2023-08-13T13:20:16.205Z,2.38
2023-08-13T13:22:18.472Z,2.38
2023-08-13T13:24:20.557Z,2.28
2023-08-13T13:26:22.372Z,2.15
2023-08-13T13:28:24.084Z,2.47
2023-08-13T13:30:29.826Z,2.47
2023-08-13T13:32:31.776Z,2.40
2023-08-13T13:34:33.514Z,2.13
2023-08-13T13:36:35.234Z,2.70
2023-08-13T13:38:37.055Z,2.22
2023-08-13T13:40:39.084Z,2.25
2023-08-13T13:42:40.815Z,1.95
2023-08-13T13:44:42.641Z,2.20
2023-08-13T13:46:44.411Z,2.45
2023-08-13T13:48:46.125Z,2.30
2023-08-13T13:50:48.094Z,2.63
2023-08-13T13:52:50.361Z,1.95
2023-08-13T13:54:53.650Z,2.60
2023-08-13T13:56:55.428Z,2.05
2023-08-13T13:58:57.145Z,2.47
2023-08-13T14:00:59.066Z,2.50
2023-08-13T14:03:01.025Z,2.17
2023-08-13T14:05:04.011Z,2.10
2023-08-13T14:07:05.863Z,1.90
2023-08-13T14:09:07.948Z,2.10
2023-08-13T14:11:09.620Z,1.98
2023-08-13T14:13:11.428Z,2.50
2023-08-13T14:15:13.354Z,1.75
2023-08-13T14:17:15.102Z,2.10
2023-08-13T14:19:17.073Z,2.03
2023-08-13T14:21:18.814Z,1.60
2023-08-13T14:23:20.547Z,1.95
2023-08-13T14:25:22.409Z,2.17
2023-08-13T14:27:26.514Z,1.88
2023-08-13T14:29:28.953Z,1.98
2023-08-13T14:31:30.827Z,2.20
2023-08-13T14:33:32.791Z,1.95
2023-08-13T14:35:35.333Z,1.85
2023-08-13T14:37:37.004Z,1.80
2023-08-13T14:39:38.729Z,2.17
2023-08-13T14:41:40.508Z,2.00
2023-08-13T14:43:43.481Z,1.60
2023-08-13T14:45:45.560Z,1.92
2023-08-13T14:47:47.514Z,2.08
2023-08-13T14:49:49.618Z,1.98
2023-08-13T14:51:51.356Z,1.90
2023-08-13T14:53:53.517Z,2.00
2023-08-13T14:55:55.273Z,1.73
2023-08-13T14:57:56.956Z,1.55
2023-08-13T14:59:58.744Z,1.90
2023-08-13T15:02:00.715Z,1.75
2023-08-13T15:04:02.557Z,2.00
2023-08-13T15:06:04.554Z,1.45
2023-08-13T15:08:06.407Z,2.20
2023-08-13T15:10:09.601Z,1.38
2023-08-13T15:12:11.800Z,1.60
2023-08-13T15:14:13.510Z,1.83
2023-08-13T15:16:17.470Z,2.22
2023-08-13T15:18:19.348Z,1.90
2023-08-13T15:20:21.289Z,1.50
2023-08-13T15:22:25.085Z,1.50
2023-08-13T15:24:27.014Z,1.70
2023-08-13T15:26:28.716Z,1.70
2023-08-13T15:28:31.265Z,1.90
2023-08-13T15:30:33.231Z,1.90
2023-08-13T15:32:35.004Z,1.95
2023-08-13T15:34:37.163Z,2.10
2023-08-13T15:36:38.861Z,1.92
2023-08-13T15:38:40.614Z,1.77
2023-08-13T15:40:42.317Z,2.55
2023-08-13T15:42:44.319Z,1.98
2023-08-13T15:44:45.969Z,1.55
2023-08-13T15:46:47.702Z,1.60
2023-08-13T15:48:49.545Z,1.70
2023-08-13T15:50:51.323Z,1.75
2023-08-13T15:52:53.805Z,1.90
2023-08-13T15:54:55.647Z,1.80
2023-08-13T15:56:57.366Z,2.20
2023-08-13T15:58:59.013Z,1.58
2023-08-13T16:01:00.782Z,1.50
2023-08-13T16:03:02.939Z,1.75
2023-08-13T16:05:05.159Z,1.67
2023-08-13T16:07:07.224Z,1.98
2023-08-13T16:09:09.059Z,1.80
2023-08-13T16:11:10.738Z,1.70
2023-08-13T16:13:12.544Z,1.70
2023-08-13T16:15:14.544Z,1.85
2023-08-13T16:17:16.334Z,1.65
2023-08-13T16:19:18.701Z,1.50
2023-08-13T16:21:20.429Z,1.58
2023-08-13T16:23:22.198Z,1.83
2023-08-13T16:25:23.929Z,1.80
2023-08-13T16:27:25.697Z,2.15
2023-08-13T16:29:27.391Z,1.98
2023-08-13T16:31:29.237Z,2.00
2023-08-13T16:33:30.973Z,1.80
2023-08-13T16:35:33.237Z,1.92
2023-08-13T16:37:35.094Z,2.00
2023-08-13T16:39:36.882Z,2.10
2023-08-13T16:41:38.581Z,1.90
2023-08-13T16:43:40.386Z,3.45
2023-08-13T16:45:42.215Z,2.70
2023-08-13T16:47:44.252Z,2.00
2023-08-13T16:49:46.490Z,2.38
2023-08-13T16:51:48.203Z,2.30
2023-08-13T16:53:50.135Z,2.40
2023-08-13T16:55:51.968Z,2.25
2023-08-13T16:57:53.768Z,2.55
2023-08-13T16:59:55.463Z,2.65
2023-08-13T17:01:57.264Z,4.00
2023-08-13T17:03:59.217Z,3.20
2023-08-13T17:06:01.174Z,2.70
2023-08-13T17:08:03.055Z,3.53
2023-08-13T17:10:06.013Z,3.47
2023-08-13T17:12:07.938Z,3.10
2023-08-13T17:14:09.763Z,3.10
2023-08-13T17:16:11.659Z,3.57
2023-08-13T17:18:13.478Z,3.30
2023-08-13T17:20:15.224Z,3.50
2023-08-13T17:22:17.165Z,3.73
2023-08-13T17:24:18.954Z,3.30
2023-08-13T17:26:22.347Z,4.43
2023-08-13T17:28:24.052Z,3.40
2023-08-13T17:30:26.062Z,3.90
2023-08-13T17:32:27.782Z,4.07
2023-08-13T17:34:29.542Z,4.07
2023-08-13T17:36:31.390Z,3.53
2023-08-13T17:38:33.148Z,4.50
2023-08-13T17:40:35.057Z,4.00
2023-08-13T17:42:36.878Z,3.93
2023-08-13T17:44:38.651Z,4.00
2023-08-13T17:46:40.546Z,3.90
2023-08-13T17:48:42.321Z,4.60
2023-08-13T17:50:44.141Z,3.63
2023-08-13T17:52:46.025Z,3.40
2023-08-13T17:54:47.787Z,5.13
2023-08-13T17:56:49.522Z,3.63
2023-08-13T17:58:56.906Z,3.33
2023-08-13T18:01:01.556Z,4.40
2023-08-13T18:03:03.927Z,3.63
2023-08-13T18:05:06.041Z,3.90
2023-08-13T18:07:07.734Z,3.90
2023-08-13T18:09:09.558Z,3.17
2023-08-13T18:11:11.298Z,3.57
2023-08-13T18:13:13.292Z,3.40
2023-08-13T18:15:15.652Z,3.60
2023-08-13T18:17:17.686Z,4.00
2023-08-13T18:19:19.687Z,3.40
2023-08-13T18:21:21.514Z,3.03
2023-08-13T18:23:23.448Z,3.10
2023-08-13T18:25:25.235Z,3.57
2023-08-13T18:27:27.139Z,3.50
2023-08-13T18:29:28.853Z,3.80
2023-08-13T18:31:30.831Z,3.70
2023-08-13T18:33:32.597Z,4.03
2023-08-13T18:35:34.468Z,3.83
2023-08-13T18:37:36.230Z,3.47
2023-08-13T18:39:38.054Z,3.47
2023-08-13T18:41:39.870Z,3.40
2023-08-13T18:43:41.602Z,3.63
2023-08-13T18:45:43.451Z,3.53
2023-08-13T18:47:45.946Z,3.40
2023-08-13T18:49:47.842Z,3.47
2023-08-13T18:51:49.570Z,3.27
2023-08-13T18:53:52.455Z,3.40
2023-08-13T18:55:54.269Z,3.50
2023-08-13T18:57:56.101Z,4.20
2023-08-13T18:59:57.817Z,3.10
2023-08-13T19:01:59.738Z,2.97
2023-08-13T19:04:01.453Z,3.40
2023-08-13T19:06:03.429Z,3.30
2023-08-13T19:08:05.764Z,3.43
2023-08-13T19:10:08.394Z,3.47
2023-08-13T19:12:10.185Z,3.80
2023-08-13T19:14:12.194Z,3.63
2023-08-13T19:16:14.066Z,3.13
2023-08-13T19:18:15.757Z,3.77
2023-08-13T19:20:18.571Z,3.30
2023-08-13T19:22:20.313Z,3.23
2023-08-13T19:24:22.022Z,3.40
2023-08-13T19:26:24.293Z,3.60
2023-08-13T19:28:26.007Z,3.97
2023-08-13T19:30:27.908Z,4.00
2023-08-13T19:32:29.655Z,3.43
2023-08-13T19:34:32.561Z,3.83
2023-08-13T19:36:34.497Z,3.80
2023-08-13T19:38:36.334Z,3.10
2023-08-13T19:40:42.118Z,4.57
2023-08-13T19:42:43.918Z,3.30
2023-08-13T19:44:45.639Z,4.27
2023-08-13T19:46:47.485Z,3.80
2023-08-13T19:48:49.225Z,3.03
2023-08-13T19:50:52.041Z,3.43
2023-08-13T19:52:53.790Z,3.70
2023-08-13T19:54:55.765Z,3.40
2023-08-13T19:56:57.508Z,4.00
2023-08-13T19:58:59.236Z,3.43
2023-08-13T20:01:04.365Z,4.00
2023-08-13T20:03:07.056Z,4.30
2023-08-13T20:05:09.274Z,3.30
2023-08-13T20:07:10.975Z,3.57
2023-08-13T20:09:12.708Z,4.40
2023-08-13T20:11:16.206Z,3.63
2023-08-13T20:13:18.338Z,3.33
2023-08-13T20:15:20.300Z,3.20
2023-08-13T20:17:24.255Z,3.40
2023-08-13T20:19:26.073Z,3.70
2023-08-13T20:21:27.794Z,3.50
2023-08-13T20:23:29.488Z,3.73
2023-08-13T20:25:31.225Z,4.27
2023-08-13T20:27:32.987Z,3.17
2023-08-13T20:29:34.726Z,3.73
2023-08-13T20:31:36.699Z,3.70
2023-08-13T20:33:39.933Z,4.07
2023-08-13T20:35:41.746Z,3.87
2023-08-13T20:37:43.566Z,3.60
2023-08-13T20:39:45.380Z,3.83
2023-08-13T20:41:47.393Z,4.60
2023-08-13T20:43:49.519Z,4.30
2023-08-13T20:45:51.965Z,3.80
2023-08-13T20:47:53.864Z,4.50
2023-08-13T20:49:56.814Z,5.20
2023-08-13T20:51:58.531Z,4.70
2023-08-13T20:54:00.335Z,5.70
2023-08-13T20:56:02.242Z,4.60
2023-08-13T20:58:04.204Z,4.83
2023-08-13T21:00:08.049Z,4.40
2023-08-13T21:02:09.728Z,4.20
2023-08-13T21:04:11.573Z,4.00
2023-08-13T21:06:13.457Z,5.07
2023-08-13T21:08:15.207Z,5.30
2023-08-13T21:10:16.996Z,4.43
2023-08-13T21:12:19.018Z,5.53
2023-08-13T21:14:21.091Z,5.60
2023-08-13T21:16:22.919Z,4.97
2023-08-13T21:18:24.710Z,5.33
2023-08-13T21:20:26.509Z,5.03
2023-08-13T21:22:28.218Z,5.33
2023-08-13T21:24:29.942Z,5.37
2023-08-13T21:26:31.819Z,5.73
2023-08-13T21:28:33.810Z,5.53
2023-08-13T21:30:35.804Z,5.23
2023-08-13T21:32:38.388Z,4.73
2023-08-13T21:34:40.102Z,6.40
2023-08-13T21:36:41.898Z,5.87
2023-08-13T21:38:43.668Z,5.20
2023-08-13T21:40:45.439Z,5.20
2023-08-13T21:42:47.263Z,5.60
2023-08-13T21:44:49.316Z,5.23
2023-08-13T21:46:51.076Z,6.03
2023-08-13T21:48:53.020Z,6.10
2023-08-13T21:50:54.992Z,5.80
2023-08-13T21:52:56.737Z,6.43
2023-08-13T21:54:58.662Z,6.03
2023-08-13T21:57:00.485Z,6.60
2023-08-13T21:59:02.204Z,8.57
2023-08-13T22:01:04.040Z,6.60
2023-08-13T22:03:05.851Z,7.80
2023-08-13T22:05:08.010Z,6.83
2023-08-13T22:07:09.889Z,6.97
2023-08-13T22:09:11.651Z,6.80
2023-08-13T22:11:13.333Z,7.03
2023-08-13T22:13:15.097Z,6.47
2023-08-13T22:15:17.076Z,8.13
2023-08-13T22:17:18.907Z,8.23
2023-08-13T22:19:20.597Z,8.27
2023-08-13T22:21:22.369Z,7.50
2023-08-13T22:23:24.197Z,8.60
2023-08-13T22:25:26.522Z,8.23
2023-08-13T22:27:28.427Z,7.53
2023-08-13T22:29:30.251Z,8.63
2023-08-13T22:31:32.325Z,8.03
2023-08-13T22:33:34.019Z,8.63
2023-08-13T22:35:35.734Z,9.00
2023-08-13T22:37:37.759Z,10.07
2023-08-13T22:39:39.529Z,8.47
2023-08-13T22:41:41.185Z,8.83
2023-08-13T22:43:42.886Z,9.13
2023-08-13T22:45:44.630Z,8.80
2023-08-13T22:47:47.219Z,8.77
2023-08-13T22:49:49.334Z,8.60
2023-08-13T22:51:51.029Z,8.77
2023-08-13T22:53:54.304Z,8.50
2023-08-13T22:55:56.012Z,7.37
2023-08-13T22:57:57.969Z,7.10
2023-08-13T22:59:59.756Z,7.80
2023-08-13T23:02:02.193Z,7.00
2023-08-13T23:04:04.249Z,5.87
2023-08-13T23:06:05.992Z,6.43
2023-08-13T23:08:07.719Z,6.00
2023-08-13T23:10:09.721Z,5.80
2023-08-13T23:12:11.405Z,5.80
2023-08-13T23:14:13.483Z,6.07
2023-08-13T23:16:15.386Z,6.13
2023-08-13T23:18:17.464Z,5.90
2023-08-13T23:20:19.282Z,5.40
2023-08-13T23:22:20.989Z,5.13
2023-08-13T23:24:25.412Z,5.33
2023-08-13T23:26:27.795Z,5.13
2023-08-13T23:28:29.556Z,5.77
2023-08-13T23:30:31.380Z,5.67
2023-08-13T23:32:33.274Z,4.90
2023-08-13T23:34:35.360Z,5.63
2023-08-13T23:36:37.102Z,5.50
2023-08-13T23:38:39.026Z,5.73
2023-08-13T23:40:40.732Z,5.80
2023-08-13T23:42:42.524Z,6.00
2023-08-13T23:44:44.326Z,5.70
2023-08-13T23:46:46.151Z,5.40
2023-08-13T23:48:47.953Z,5.33
2023-08-13T23:50:55.608Z,5.80
2023-08-13T23:52:58.017Z,5.87
2023-08-13T23:54:59.770Z,5.73
2023-08-13T23:57:01.718Z,6.07
2023-08-13T23:59:03.600Z,5.50
